Archival Weather

Norman Y Mineta San Jose Intl

San Jose, California (KSJC)

Report from: Wednesday, February 7, 2024 10:53 AM PST
Current time: Monday, June 24, 2024 2:26 AM PDT

Current weather – Weather history – Daily summaries
Weather forecast

Present weatherRain
Temperature10.0°C (50.0°F)
Wind chill7.2°C (44.9°F)
Dew point6.7°C (44.1°F)
Winds 12 kts (6.2 m/s, 13.8 mph) Southeast (130°)
Visibility5 mi. (8 km)
Clouds Few clouds 1,200 ft. (366 m)
Ceiling: Broken clouds 3,300 ft. (1,006 m)
Overcast 5,000 ft. (1,524 m)
Altimeter29.82 in.Hg (1010 mB)
Precipitiation0.07 in. (2 mm)
Relative humidity80 %
Density altitude-332 ft. (-101 m)
Sea-level pressure101.0 kPa (1010 mB, 29.81 in.Hg)
Remarks Automated weather observing station with precipitation discriminator
Flight conditions Visual Meteorological Conditions
Raw dataKSJC 071853Z 13012KT 5SM RA FEW012 BKN033 OVC050 10/07 A2982 RMK AO2 SLP096 P0007 T01000067
An error has occurred. This application may no longer respond until reloaded. Reload 🗙